Alsey, Illinois
Current Conditions -  °F | °C
As of 4:55 AM on Friday 28 Nov 2014 (Local Time) from KIJX Reporting Station
Clear Clear  
Wind Chill: -12°   Ceiling: Unl
Heat Index: -6°   Visibility: 10mi
Dew Point: -10°   Wind: 8mph
Humidity: 79%   Direction: 140°SE
Pressure: 30.29"   Gusts: NA
Location:  39.56°N, 90.43°W
Report Text: KIJX 281055Z AUTO 14007KT 10SM CLR M06/M09 A3029 RMK AO2 T10641095
Loading
Personal Weather Stations






























Interactive Weather Map New forecast layout! Learn more

10-Day Weather Forecast

Advertisements
Track Severe Weather on mobile